Time;durP1;ratioP1;P1;durP2;ratioP2;P2;SDS_P1;SDS_P2;PMS_P1;PMS_P2;Temp;Humidity;BMP_temperature;BMP_pressure;BME280_temperature;BME280_humidity;BME280_pressure;Samples;Min_cycle;Max_cycle;Signal;HPM_P1;HPM_P2
2021/11/02 00:01:10;;;;;;;264.70;34.13;;;9.50;99.90;;;;;;6039878;23;20447;-78
2021/11/02 00:03:39;;;;;;;213.87;29.57;;;9.50;99.90;;;;;;6040110;23;20447;-78
2021/11/02 00:06:07;;;;;;;229.83;31.30;;;9.50;99.90;;;;;;6039870;23;20419;-78
2021/11/02 00:08:36;;;;;;;329.97;31.77;;;9.50;99.90;;;;;;6051205;23;20460;-78
2021/11/02 00:11:05;;;;;;;277.13;30.13;;;9.50;99.90;;;;;;6039974;23;20539;-78
2021/11/02 00:13:46;;;;;;;93.40;21.47;;;9.50;99.90;;;;;;6039942;23;20412;-78
2021/11/02 00:16:20;;;;;;;233.83;33.57;;;9.40;99.90;;;;;;6061722;23;20835;-78
2021/11/02 00:18:57;;;;;;;212.60;27.47;;;9.40;99.90;;;;;;6079926;23;20420;-78
2021/11/02 00:21:28;;;;;;;149.20;22.63;;;9.40;99.90;;;;;;6068252;23;20415;-78
2021/11/02 00:24:08;;;;;;;166.53;25.80;;;9.30;99.90;;;;;;6069988;23;20427;-77
2021/11/02 00:26:37;;;;;;;201.43;33.33;;;9.30;99.90;;;;;;6067705;23;20926;-77
2021/11/02 00:29:07;;;;;;;150.77;31.97;;;9.30;99.90;;;;;;6067978;23;20451;-78
2021/11/02 00:31:39;;;;;;;183.13;26.17;;;9.20;99.90;;;;;;6068065;23;20415;-78
2021/11/02 00:34:08;;;;;;;186.33;40.70;;;9.20;99.90;;;;;;6067971;23;20895;-78
2021/11/02 00:36:36;;;;;;;170.07;23.33;;;9.20;99.90;;;;;;6079723;23;20442;-78
2021/11/02 00:39:06;;;;;;;126.27;21.27;;;9.20;99.90;;;;;;6068057;23;20766;-78
2021/11/02 00:41:37;;;;;;;247.27;30.57;;;9.20;99.90;;;;;;6068009;23;20414;-78
2021/11/02 00:44:08;;;;;;;284.00;36.93;;;9.20;99.90;;;;;;6067980;23;20977;-78
2021/11/02 00:46:36;;;;;;;117.53;23.20;;;9.20;99.90;;;;;;6079280;23;20379;-78
2021/11/02 00:49:07;;;;;;;263.47;26.40;;;9.10;99.90;;;;;;6067514;23;20455;-77
2021/11/02 00:51:36;;;;;;;190.50;27.23;;;9.10;99.90;;;;;;6068015;23;20446;-77
2021/11/02 00:54:04;;;;;;;201.73;29.93;;;9.10;99.90;;;;;;6067861;23;20407;-78
2021/11/02 00:56:40;;;;;;;210.27;25.27;;;9.10;99.90;;;;;;6067817;23;20419;-78
2021/11/02 00:59:10;;;;;;;174.60;28.40;;;9.10;99.90;;;;;;6067680;23;20423;-77
2021/11/02 01:01:39;;;;;;;190.43;25.03;;;9.10;99.90;;;;;;6068616;23;20499;-78
2021/11/02 01:04:10;;;;;;;206.30;29.77;;;9.00;99.90;;;;;;6067442;23;20435;-78
2021/11/02 01:06:41;;;;;;;150.83;27.97;;;9.00;99.90;;;;;;6067636;23;20411;-78
2021/11/02 01:09:10;;;;;;;214.80;30.73;;;9.00;99.90;;;;;;6067514;23;20430;-78
2021/11/02 01:11:40;;;;;;;233.23;35.03;;;9.00;99.90;;;;;;6067385;23;20407;-78
2021/11/02 01:14:09;;;;;;;281.23;31.87;;;9.00;99.90;;;;;;6067468;23;20422;-78
2021/11/02 01:16:39;;;;;;;182.43;27.37;;;8.90;99.90;;;;;;6067379;23;20415;-78
2021/11/02 01:19:07;;;;;;;222.83;25.90;;;8.90;99.90;;;;;;6067896;23;20728;-78
2021/11/02 01:21:36;;;;;;;149.37;30.53;;;8.90;99.90;;;;;;6067323;23;20440;-77
2021/11/02 01:24:05;;;;;;;84.07;26.00;;;8.80;99.90;;;;;;6067561;23;20471;-77
2021/11/02 01:26:33;;;;;;;210.40;31.17;;;8.80;99.90;;;;;;6067569;23;20427;-78
2021/11/02 01:29:01;;;;;;;112.67;21.50;;;8.80;99.90;;;;;;6069103;23;20415;-77
2021/11/02 01:31:34;;;;;;;99.23;16.53;;;8.80;99.90;;;;;;6068387;23;20910;-78
2021/11/02 01:34:04;;;;;;;202.53;27.17;;;8.80;99.90;;;;;;6067419;23;20917;-78
2021/11/02 01:36:34;;;;;;;244.50;31.77;;;8.70;99.90;;;;;;6067113;23;20785;-77
2021/11/02 01:39:05;;;;;;;142.63;19.57;;;8.70;99.90;;;;;;6067429;23;20514;-78
2021/11/02 01:41:35;;;;;;;184.10;21.60;;;8.70;99.90;;;;;;6067186;23;20419;-78
2021/11/02 01:44:06;;;;;;;128.57;18.47;;;8.70;99.90;;;;;;6067226;23;20435;-78
2021/11/02 01:46:38;;;;;;;128.77;21.50;;;8.60;99.90;;;;;;6067368;23;20419;-78
2021/11/02 01:49:08;;;;;;;174.33;23.60;;;8.60;99.90;;;;;;6067213;23;20918;-77
2021/11/02 01:51:38;;;;;;;165.70;25.17;;;8.60;99.90;;;;;;6067295;23;20414;-77
2021/11/02 01:54:07;;;;;;;169.43;21.03;;;8.60;99.90;;;;;;6067358;23;20479;-78
2021/11/02 01:56:41;;;;;;;181.73;30.30;;;8.60;99.90;;;;;;6067329;23;20501;-77
2021/11/02 01:59:10;;;;;;;157.00;31.40;;;8.50;99.90;;;;;;6067087;23;20959;-78
2021/11/02 02:01:57;;;;;;;229.33;29.50;;;8.50;99.90;;;;;;6067429;23;20502;-78
2021/11/02 02:04:37;;;;;;;233.50;30.07;;;8.50;99.90;;;;;;6067431;23;20819;-78
2021/11/02 02:07:14;;;;;;;144.33;23.53;;;8.50;99.90;;;;;;6067249;23;20415;-78
2021/11/02 02:09:50;;;;;;;145.50;25.27;;;8.40;99.90;;;;;;6067271;23;21013;-77
2021/11/02 02:12:31;;;;;;;153.67;24.83;;;8.40;99.90;;;;;;6067365;23;20407;-77
2021/11/02 02:15:10;;;;;;;118.10;18.70;;;8.40;99.90;;;;;;6067297;23;20434;-78
2021/11/02 02:17:46;;;;;;;174.37;21.30;;;8.40;99.90;;;;;;6067371;23;20415;-78
2021/11/02 02:20:24;;;;;;;141.27;23.33;;;8.30;99.90;;;;;;6067064;23;20926;-78
2021/11/02 02:23:16;;;;;;;145.90;27.63;;;8.30;99.90;;;;;;6078447;23;20391;-78
2021/11/02 02:25:56;;;;;;;195.77;29.70;;;8.30;99.90;;;;;;6067165;23;20411;-78
2021/11/02 02:28:32;;;;;;;156.30;23.57;;;8.30;99.90;;;;;;6066989;23;20443;-78
2021/11/02 02:31:09;;;;;;;234.53;23.47;;;8.30;99.90;;;;;;6068466;23;20537;-78
2021/11/02 02:33:45;;;;;;;178.47;25.90;;;8.20;99.90;;;;;;6067253;23;20411;-78
2021/11/02 02:36:25;;;;;;;73.83;11.40;;;8.20;99.90;;;;;;6067314;23;20410;-78
2021/11/02 02:39:02;;;;;;;148.30;21.33;;;8.20;99.90;;;;;;6067440;23;20410;-77
2021/11/02 02:41:33;;;;;;;187.37;33.23;;;8.10;99.90;;;;;;6067470;23;20418;-77
2021/11/02 02:44:05;;;;;;;82.07;17.63;;;8.10;99.90;;;;;;6067290;23;20447;-78
2021/11/02 02:46:34;;;;;;;179.90;23.80;;;8.10;99.90;;;;;;6067111;23;20415;-78
2021/11/02 02:49:03;;;;;;;132.33;20.63;;;8.10;99.90;;;;;;6067076;23;20427;-77
2021/11/02 02:51:35;;;;;;;180.67;26.97;;;8.10;99.90;;;;;;6068824;23;20423;-78
2021/11/02 02:54:05;;;;;;;145.03;24.40;;;8.00;99.90;;;;;;6068729;23;20415;-78
2021/11/02 02:56:34;;;;;;;125.37;26.70;;;8.00;99.90;;;;;;6068856;23;20979;-78
2021/11/02 02:59:06;;;;;;;171.50;23.07;;;8.00;99.90;;;;;;6069861;23;20490;-78
2021/11/02 03:01:35;;;;;;;161.17;20.37;;;8.00;99.90;;;;;;6069472;23;20423;-78
2021/11/02 03:04:05;;;;;;;107.87;18.57;;;7.90;99.90;;;;;;6068522;23;20447;-78
2021/11/02 03:06:41;;;;;;;186.43;21.60;;;7.90;99.90;;;;;;6068731;23;20412;-78
2021/11/02 03:09:11;;;;;;;122.80;18.10;;;7.90;99.90;;;;;;6055578;23;20447;-78
2021/11/02 03:11:42;;;;;;;182.67;19.70;;;7.80;99.90;;;;;;6068799;23;20431;-78
2021/11/02 03:14:20;;;;;;;121.27;23.47;;;7.80;99.90;;;;;;6068696;23;20426;-78
2021/11/02 03:16:55;;;;;;;145.53;29.43;;;7.80;99.90;;;;;;6069964;23;20411;-78
2021/11/02 03:47:58;;;;;;;177.00;28.37;;;7.50;99.90;;;;;;6068364;23;20439;-78
2021/11/02 03:48:19;;;;;;;169.77;26.27;;;7.50;99.90;;;;;;6069323;23;20430;-78
2021/11/02 03:51:11;;;;;;;247.27;23.80;;;7.50;99.90;;;;;;6068791;23;20450;-78
2021/11/02 03:59:55;;;;;;;114.80;24.47;;;7.40;99.90;;;;;;6059475;23;20993;-77
2021/11/02 05:06:36;;;;;;;206.87;34.90;;;7.10;99.90;;;;;;6192748;23;20416;-76
2021/11/02 05:49:22;;;;;;;123.23;16.77;;;6.80;99.90;;;;;;6185457;23;20423;-77
2021/11/02 05:52:23;;;;;;;84.17;20.57;;;6.80;99.90;;;;;;6185585;23;20497;-76
2021/11/02 05:55:05;;;;;;;104.97;17.67;;;6.80;99.90;;;;;;6185509;23;20411;-76
2021/11/02 05:57:38;;;;;;;105.37;20.33;;;6.80;99.90;;;;;;6185546;23;20439;-76
2021/11/02 06:00:18;;;;;;;101.90;18.77;;;6.70;99.90;;;;;;6185849;23;20945;-76
2021/11/02 06:03:15;;;;;;;87.00;17.10;;;6.70;99.90;;;;;;6185597;23;20740;-75
2021/11/02 06:05:49;;;;;;;95.83;21.43;;;6.70;99.90;;;;;;6185942;23;20431;-78
2021/11/02 06:11:32;;;;;;;63.37;19.43;;;6.60;99.90;;;;;;6166028;23;20443;-75
2021/11/02 06:28:35;;;;;;;117.87;17.77;;;6.50;99.90;;;;;;6185206;23;20474;-76
2021/11/02 06:31:08;;;;;;;70.83;22.43;;;6.50;99.90;;;;;;6185191;23;20447;-75
2021/11/02 06:33:49;;;;;;;98.50;21.30;;;6.40;99.90;;;;;;6187066;23;20399;-76
2021/11/02 06:47:47;;;;;;;120.20;17.23;;;6.40;99.90;;;;;;6186362;23;20451;-76
2021/11/02 06:59:16;;;;;;;206.80;26.40;;;6.30;99.90;;;;;;6185059;23;20412;-77
2021/11/02 07:18:57;;;;;;;172.43;32.53;;;6.30;99.90;;;;;;6151312;23;20422;-76
2021/11/02 07:21:30;;;;;;;98.57;20.80;;;6.30;99.90;;;;;;6184821;23;20404;-76
2021/11/02 07:24:03;;;;;;;100.80;19.97;;;6.30;99.90;;;;;;6186432;23;20851;-77
2021/11/02 07:26:47;;;;;;;140.23;26.43;;;6.30;99.90;;;;;;6185101;23;20484;-78
2021/11/02 07:29:45;;;;;;;96.93;23.40;;;6.30;99.90;;;;;;6185209;23;20447;-78
2021/11/02 08:45:57;;;;;;;127.73;26.00;;;7.50;99.90;;;;;;6186067;23;20447;-78
2021/11/02 08:48:28;;;;;;;153.43;20.50;;;7.60;99.90;;;;;;6184313;23;20399;-78
2021/11/02 08:51:00;;;;;;;195.37;27.10;;;7.70;99.90;;;;;;6184322;23;20439;-78
2021/11/02 08:53:29;;;;;;;144.03;33.10;;;7.70;99.90;;;;;;6184791;23;20880;-78
2021/11/02 08:55:58;;;;;;;190.00;35.03;;;7.80;99.90;;;;;;6184900;23;20499;-78
2021/11/02 08:58:28;;;;;;;159.33;25.10;;;7.80;99.90;;;;;;6184715;23;20502;-78
2021/11/02 09:00:57;;;;;;;213.43;32.77;;;7.90;99.90;;;;;;6184173;23;20489;-78
2021/11/02 09:03:30;;;;;;;108.30;25.47;;;8.00;99.90;;;;;;6184331;23;20458;-78
2021/11/02 09:06:03;;;;;;;152.37;31.50;;;8.00;99.90;;;;;;6184781;23;20743;-78
2021/11/02 09:08:39;;;;;;;195.87;33.13;;;8.10;99.90;;;;;;6185227;23;20498;-78
2021/11/02 09:11:08;;;;;;;116.23;25.03;;;8.10;99.90;;;;;;6185562;23;20497;-78
2021/11/02 09:13:38;;;;;;;166.57;31.87;;;8.20;99.90;;;;;;6186319;23;20415;-78
2021/11/02 09:16:06;;;;;;;157.33;29.87;;;8.30;99.90;;;;;;6188112;23;20466;-78
2021/11/02 09:18:36;;;;;;;135.00;24.43;;;8.30;99.90;;;;;;6185988;23;20795;-78
2021/11/02 09:21:07;;;;;;;184.67;31.67;;;8.40;99.90;;;;;;6186027;23;20833;-78
2021/11/02 09:23:36;;;;;;;172.00;33.67;;;8.40;99.90;;;;;;6186125;23;20828;-78
2021/11/02 09:26:04;;;;;;;231.93;44.70;;;8.50;99.90;;;;;;6186258;23;20439;-78
2021/11/02 09:28:34;;;;;;;217.93;38.83;;;8.60;99.90;;;;;;6185954;23;20450;-78
2021/11/02 09:31:02;;;;;;;171.30;29.77;;;8.60;99.90;;;;;;6185782;23;20565;-78
2021/11/02 09:33:32;;;;;;;200.70;37.63;;;8.70;99.90;;;;;;6185718;23;20526;-78
2021/11/02 09:36:02;;;;;;;195.60;37.37;;;8.70;99.90;;;;;;6185686;23;20419;-78
2021/11/02 09:38:44;;;;;;;174.17;37.47;;;8.80;99.90;;;;;;6185605;23;20423;-78
2021/11/02 09:41:43;;;;;;;114.73;26.33;;;8.90;99.90;;;;;;6185744;23;20443;-78
2021/11/02 09:44:42;;;;;;;206.57;37.57;;;8.90;99.90;;;;;;6185867;23;20791;-78
2021/11/02 09:47:51;;;;;;;12.77;11.43;;;9.00;99.90;;;;;;6196192;23;20395;-78
2021/11/02 09:50:39;;;;;;;307.30;45.07;;;9.20;99.90;;;;;;6185606;23;20431;-78
2021/11/02 10:17:54;;;;;;;223.90;40.37;;;9.60;99.90;;;;;;6058838;23;20450;-78
2021/11/02 10:20:39;;;;;;;253.17;43.10;;;9.70;99.90;;;;;;6148829;23;20430;-77
2021/11/02 10:23:21;;;;;;;357.20;50.77;;;9.70;99.90;;;;;;6162205;23;20947;-78
2021/11/02 10:26:27;;;;;;;216.47;39.50;;;9.80;99.90;;;;;;6162034;23;20536;-78
2021/11/02 10:29:51;;;;;;;304.60;45.70;;;9.90;99.90;;;;;;6162081;23;20418;-78
2021/11/02 10:32:24;;;;;;;240.40;41.40;;;9.90;99.90;;;;;;6316426;22;20456;-78
2021/11/02 10:35:02;;;;;;;267.13;34.53;;;10.00;99.90;;;;;;6314958;22;20856;-77
2021/11/02 10:38:07;;;;;;;213.47;34.70;;;10.10;99.90;;;;;;6315087;22;20885;-78
2021/11/02 10:40:47;;;;;;;263.77;39.10;;;10.10;99.90;;;;;;6314879;22;20435;-78
2021/11/02 10:43:39;;;;;;;249.73;49.27;;;10.20;99.90;;;;;;6314859;22;20407;-78
2021/11/02 10:46:11;;;;;;;240.10;48.50;;;10.20;99.90;;;;;;6314912;22;20524;-78
2021/11/02 10:48:42;;;;;;;235.23;40.30;;;10.30;99.90;;;;;;6314923;22;20816;-78
2021/11/02 10:51:23;;;;;;;201.37;39.70;;;10.40;99.90;;;;;;6314790;22;20820;-78
2021/11/02 10:53:59;;;;;;;228.20;43.23;;;10.40;99.90;;;;;;6315039;22;20407;-78
2021/11/02 10:56:46;;;;;;;275.67;47.20;;;10.50;99.90;;;;;;6314752;22;20435;-78
2021/11/02 10:59:17;;;;;;;307.97;45.33;;;10.50;99.90;;;;;;6316633;22;20410;-78
2021/11/02 11:01:47;;;;;;;378.23;57.93;;;10.60;99.90;;;;;;6327064;22;20387;-78
2021/11/02 11:04:22;;;;;;;377.30;75.07;;;10.70;99.90;;;;;;6314708;22;20402;-78
2021/11/02 11:06:53;;;;;;;285.87;59.70;;;10.70;99.90;;;;;;6322669;22;20449;-78
2021/11/02 11:09:23;;;;;;;400.90;62.80;;;10.70;99.90;;;;;;6319610;22;20432;-78
2021/11/02 11:11:55;;;;;;;381.87;77.23;;;10.80;99.90;;;;;;6319758;22;20402;-78
2021/11/02 11:14:30;;;;;;;322.27;57.80;;;10.90;99.90;;;;;;6307660;22;20400;-78
2021/11/02 11:17:00;;;;;;;337.93;48.13;;;10.90;99.90;;;;;;6307632;22;20408;-78
2021/11/02 11:19:30;;;;;;;342.97;65.27;;;10.90;99.90;;;;;;6309543;22;20416;-78
2021/11/02 11:22:00;;;;;;;362.07;66.30;;;10.90;99.90;;;;;;6307555;22;20423;-78
2021/11/02 11:24:34;;;;;;;374.10;58.03;;;10.90;99.90;;;;;;6319461;22;20763;-78
2021/11/02 11:27:06;;;;;;;332.33;59.20;;;11.00;99.90;;;;;;6307634;22;20457;-78
2021/11/02 11:29:44;;;;;;;352.07;67.70;;;11.00;99.90;;;;;;6319655;22;20809;-78
2021/11/02 11:32:15;;;;;;;323.40;65.77;;;11.00;99.90;;;;;;6307538;22;20465;-78
2021/11/02 11:34:47;;;;;;;415.73;82.13;;;11.00;99.90;;;;;;6308401;22;20448;-78
2021/11/02 11:37:16;;;;;;;367.93;73.87;;;11.10;99.90;;;;;;6308544;22;20408;-77
2021/11/02 11:39:46;;;;;;;356.47;81.53;;;11.10;99.90;;;;;;6307320;22;20530;-78
2021/11/02 11:42:18;;;;;;;372.10;79.23;;;11.10;99.90;;;;;;6307560;22;20743;-78
2021/11/02 11:44:52;;;;;;;327.63;72.13;;;11.10;99.90;;;;;;6307381;22;20410;-78
2021/11/02 11:47:24;;;;;;;341.80;65.87;;;11.10;99.90;;;;;;6307489;22;20408;-78
2021/11/02 11:49:55;;;;;;;263.20;44.73;;;11.20;99.90;;;;;;6307191;22;20439;-78
2021/11/02 11:52:24;;;;;;;358.93;66.83;;;11.20;99.90;;;;;;6307338;22;20408;-78
2021/11/02 11:54:54;;;;;;;416.43;78.97;;;11.30;99.90;;;;;;6307208;22;20418;-78
2021/11/02 11:57:31;;;;;;;338.30;87.33;;;11.30;99.90;;;;;;6307235;22;20412;-78
2021/11/02 12:00:02;;;;;;;294.50;65.53;;;11.30;99.90;;;;;;6319428;22;20747;-78
2021/11/02 12:02:50;;;;;;;409.30;85.20;;;11.30;99.90;;;;;;6319322;22;20389;-78
2021/11/02 12:05:19;;;;;;;358.47;69.63;;;11.30;99.90;;;;;;6307281;22;20396;-78
2021/11/02 12:08:07;;;;;;;372.93;82.20;;;11.30;99.90;;;;;;6307331;22;20427;-78
2021/11/02 12:10:38;;;;;;;279.20;66.53;;;11.40;99.90;;;;;;6307261;22;20461;-78
2021/11/02 12:13:07;;;;;;;372.50;58.53;;;11.40;99.90;;;;;;6307083;22;20435;-78
2021/11/02 12:15:48;;;;;;;396.87;89.93;;;11.50;99.90;;;;;;6306974;22;20464;-78
2021/11/02 12:18:18;;;;;;;453.10;92.77;;;11.50;99.90;;;;;;6307843;22;20391;-78
2021/11/02 12:20:51;;;;;;;623.37;137.87;;;11.50;99.90;;;;;;6307634;22;20945;-78
2021/11/02 12:23:40;;;;;;;430.03;80.50;;;11.50;99.90;;;;;;6307156;22;20408;-78
2021/11/02 12:26:10;;;;;;;499.47;100.40;;;11.60;99.90;;;;;;6309981;22;20441;-78
2021/11/02 12:28:41;;;;;;;367.00;81.50;;;11.60;99.90;;;;;;6306997;22;20400;-78
2021/11/02 12:31:13;;;;;;;181.53;67.30;;;11.60;99.90;;;;;;6306915;22;20436;-78
2021/11/02 12:33:51;;;;;;;372.73;87.47;;;11.60;99.90;;;;;;6308832;22;20449;-78
2021/11/02 12:36:21;;;;;;;380.77;92.37;;;11.60;99.90;;;;;;6306803;22;20431;-78
2021/11/02 12:38:50;;;;;;;244.80;81.50;;;11.70;99.90;;;;;;6307921;22;20883;-78
2021/11/02 12:41:20;;;;;;;628.87;147.27;;;11.70;99.90;;;;;;6306624;22;20447;-78
2021/11/02 12:44:03;;;;;;;360.33;87.73;;;11.80;99.90;;;;;;6306887;22;20415;-78
2021/11/02 12:46:36;;;;;;;405.43;113.30;;;11.80;99.90;;;;;;6308830;22;20384;-78
2021/11/02 12:49:05;;;;;;;376.63;104.87;;;11.80;99.90;;;;;;6306667;22;20431;-79
2021/11/02 12:51:40;;;;;;;324.80;86.37;;;11.80;99.90;;;;;;6318680;22;20400;-78
2021/11/02 12:54:17;;;;;;;584.93;108.87;;;11.80;99.90;;;;;;6306636;22;20413;-79
2021/11/02 12:56:53;;;;;;;357.53;97.00;;;11.80;99.90;;;;;;6306576;22;20424;-78
2021/11/02 12:59:30;;;;;;;490.53;105.50;;;11.80;99.90;;;;;;6306793;22;20458;-78
2021/11/02 13:02:16;;;;;;;275.87;77.90;;;11.80;99.90;;;;;;6306716;22;20906;-78
2021/11/02 13:04:58;;;;;;;365.27;91.43;;;11.80;99.90;;;;;;6306692;22;20457;-78
2021/11/02 13:07:28;;;;;;;375.80;77.83;;;11.80;99.90;;;;;;6306384;22;20477;-78
2021/11/02 13:09:57;;;;;;;317.80;73.47;;;11.80;99.90;;;;;;6306558;22;20767;-78
2021/11/02 13:12:27;;;;;;;612.17;127.07;;;11.80;99.90;;;;;;6306631;22;21012;-78
2021/11/02 13:15:03;;;;;;;564.23;103.27;;;11.80;99.90;;;;;;6306508;22;20727;-78
2021/11/02 13:17:46;;;;;;;247.80;72.07;;;11.80;99.90;;;;;;6306599;22;20968;-78
2021/11/02 13:20:30;;;;;;;516.20;99.90;;;11.80;99.90;;;;;;6306531;22;20485;-78
2021/11/02 13:22:59;;;;;;;454.27;85.97;;;11.80;99.90;;;;;;6318607;22;20429;-78
2021/11/02 13:25:39;;;;;;;171.30;64.47;;;11.80;99.90;;;;;;6306367;22;20412;-78
2021/11/02 13:28:08;;;;;;;572.97;124.80;;;11.80;99.90;;;;;;6306560;22;20408;-78
2021/11/02 13:30:39;;;;;;;459.67;104.63;;;11.80;99.90;;;;;;6306097;22;20431;-78
2021/11/02 13:33:12;;;;;;;441.70;114.10;;;11.80;99.90;;;;;;6318343;22;20464;-78
2021/11/02 13:35:47;;;;;;;412.87;98.17;;;11.70;99.90;;;;;;6306177;22;20408;-78
2021/11/02 13:38:37;;;;;;;491.40;108.67;;;11.80;99.90;;;;;;6306409;22;20403;-78
2021/11/02 13:41:10;;;;;;;509.53;95.57;;;11.80;99.90;;;;;;6298606;22;20432;-78
2021/11/02 13:43:39;;;;;;;399.87;95.73;;;11.70;99.90;;;;;;6306334;22;20411;-78
2021/11/02 13:46:09;;;;;;;377.13;73.40;;;11.70;99.90;;;;;;6308079;22;20399;-78
2021/11/02 13:48:41;;;;;;;277.50;69.83;;;11.70;99.90;;;;;;6307769;22;20855;-78
2021/11/02 13:51:11;;;;;;;381.97;91.20;;;11.80;99.90;;;;;;6308036;22;20420;-78
2021/11/02 13:53:40;;;;;;;420.73;97.40;;;11.90;99.90;;;;;;6307155;22;20412;-78
2021/11/02 13:56:10;;;;;;;108.03;51.23;;;11.90;99.90;;;;;;6306098;22;20934;-78
2021/11/02 13:58:40;;;;;;;491.70;93.33;;;11.90;99.90;;;;;;6306282;22;20797;-78
2021/11/02 14:01:14;;;;;;;549.73;114.63;;;12.00;99.90;;;;;;6306053;22;20436;-78
2021/11/02 14:03:50;;;;;;;450.60;94.63;;;12.00;99.90;;;;;;6306941;22;20769;-78
2021/11/02 14:06:21;;;;;;;436.37;80.37;;;12.00;99.90;;;;;;6306235;22;20932;-78
2021/11/02 14:08:50;;;;;;;582.23;109.80;;;12.00;99.90;;;;;;6306196;22;20423;-78
2021/11/02 14:11:22;;;;;;;483.17;122.17;;;12.00;99.90;;;;;;6305933;22;20497;-78
2021/11/02 14:13:50;;;;;;;302.00;86.10;;;12.00;99.90;;;;;;6306158;22;20408;-78
2021/11/02 14:16:35;;;;;;;65.83;40.43;;;12.00;99.90;;;;;;6305857;22;20542;-78
2021/11/02 14:19:27;;;;;;;257.60;72.77;;;12.00;99.90;;;;;;6306118;22;20457;-79
2021/11/02 14:21:55;;;;;;;596.63;120.80;;;12.00;99.90;;;;;;6305857;22;20882;-78
2021/11/02 14:24:34;;;;;;;366.93;86.70;;;12.00;99.90;;;;;;6306209;22;20444;-78
2021/11/02 14:27:05;;;;;;;484.77;114.73;;;12.00;99.90;;;;;;6308035;22;20882;-78
2021/11/02 14:29:54;;;;;;;485.70;103.80;;;12.00;99.90;;;;;;6306022;22;20914;-78
2021/11/02 14:32:53;;;;;;;227.27;80.87;;;12.00;99.90;;;;;;6306105;22;20416;-78
2021/11/02 14:35:38;;;;;;;474.60;97.97;;;12.00;99.90;;;;;;6306077;22;20404;-78
2021/11/02 14:38:09;;;;;;;472.53;117.23;;;12.10;99.90;;;;;;6283653;22;20946;-78
2021/11/02 14:40:39;;;;;;;607.50;115.37;;;12.10;99.90;;;;;;6306019;22;20807;-78
2021/11/02 14:43:31;;;;;;;567.97;140.23;;;12.00;99.90;;;;;;6307950;22;20779;-78
2021/11/02 14:46:03;;;;;;;385.13;78.80;;;12.00;99.90;;;;;;6307930;22;20439;-78
2021/11/02 14:48:41;;;;;;;364.13;88.63;;;12.00;99.90;;;;;;6307899;22;20408;-78
2021/11/02 14:51:26;;;;;;;469.17;108.57;;;12.00;99.90;;;;;;6307792;22;20442;-78
2021/11/02 14:53:57;;;;;;;374.40;83.07;;;12.00;99.90;;;;;;6309801;22;20404;-78
2021/11/02 14:56:33;;;;;;;417.93;104.47;;;12.00;99.90;;;;;;6307821;22;20415;-78
2021/11/02 14:59:02;;;;;;;439.63;90.97;;;12.00;99.90;;;;;;6307860;22;20407;-78
2021/11/02 15:02:07;;;;;;;417.13;103.13;;;11.90;99.90;;;;;;6307925;22;20816;-76
2021/11/02 15:04:38;;;;;;;366.07;85.20;;;11.90;99.90;;;;;;6307703;22;20473;-75
2021/11/02 15:07:08;;;;;;;276.83;66.97;;;11.90;99.90;;;;;;6323020;22;20913;-74
2021/11/02 15:09:39;;;;;;;352.87;94.73;;;11.80;99.90;;;;;;6320012;22;20452;-74
2021/11/02 15:12:09;;;;;;;370.50;84.77;;;11.80;99.90;;;;;;6307800;22;20404;-75
2021/11/02 15:14:41;;;;;;;368.97;87.30;;;11.80;99.90;;;;;;6307606;22;20473;-75
2021/11/02 15:17:11;;;;;;;319.83;76.50;;;11.80;99.90;;;;;;6307678;22;20428;-75
2021/11/02 15:19:43;;;;;;;327.97;78.10;;;11.80;99.90;;;;;;6309140;22;20494;-75
2021/11/02 15:22:15;;;;;;;399.40;97.17;;;11.80;99.90;;;;;;6307850;22;20751;-76
2021/11/02 15:24:45;;;;;;;272.37;42.80;;;11.80;99.90;;;;;;6307553;22;20436;-74
2021/11/02 15:27:15;;;;;;;330.20;82.53;;;11.80;99.90;;;;;;6309454;22;20435;-75
2021/11/02 15:29:47;;;;;;;395.60;83.87;;;11.80;99.90;;;;;;6307635;22;20436;-75
2021/11/02 15:32:17;;;;;;;256.77;66.53;;;11.70;99.90;;;;;;6308531;22;20432;-75
2021/11/02 15:34:50;;;;;;;259.27;53.80;;;11.80;99.90;;;;;;6320186;22;20373;-75
2021/11/02 15:37:22;;;;;;;422.17;95.57;;;11.70;99.90;;;;;;6307473;22;20432;-74
2021/11/02 15:39:54;;;;;;;315.43;74.23;;;11.70;99.90;;;;;;6307387;22;20427;-73
2021/11/02 15:42:26;;;;;;;314.57;58.33;;;11.70;99.90;;;;;;6319110;22;20380;-75
2021/11/02 15:44:56;;;;;;;292.13;67.83;;;11.70;99.90;;;;;;6318977;22;20416;-72
2021/11/02 15:47:26;;;;;;;339.97;62.30;;;11.70;99.90;;;;;;6317985;22;20428;-72
2021/11/02 15:49:56;;;;;;;20.63;18.77;;;11.60;99.90;;;;;;6306967;22;20454;-73
2021/11/02 15:52:28;;;;;;;301.00;74.50;;;11.70;99.90;;;;;;6306157;22;20174;-75
2021/11/02 15:55:01;;;;;;;321.67;68.53;;;11.70;99.90;;;;;;6305755;22;20438;-75
2021/11/02 15:57:29;;;;;;;167.53;45.17;;;11.70;99.90;;;;;;6307103;22;20432;-75
2021/11/02 16:00:02;;;;;;;300.57;67.83;;;11.70;99.90;;;;;;6307077;22;20459;-75
2021/11/02 16:02:36;;;;;;;240.57;52.17;;;11.60;99.90;;;;;;6308794;22;20376;-76
2021/11/02 16:05:07;;;;;;;253.90;66.10;;;11.60;99.90;;;;;;6318311;22;20415;-75
2021/11/02 16:07:36;;;;;;;184.00;43.93;;;11.50;99.90;;;;;;6308675;22;20442;-76
2021/11/02 16:10:06;;;;;;;312.30;60.63;;;11.50;99.90;;;;;;6308542;22;20424;-74
2021/11/02 16:12:37;;;;;;;241.70;66.77;;;11.50;99.90;;;;;;6307004;22;20420;-75
2021/11/02 16:15:11;;;;;;;274.73;72.60;;;11.40;99.90;;;;;;6318273;22;20412;-75
2021/11/02 16:17:43;;;;;;;184.03;39.47;;;11.40;99.90;;;;;;6317285;22;20550;-75
2021/11/02 16:20:20;;;;;;;246.63;59.40;;;11.30;99.90;;;;;;6317279;22;20747;-75
2021/11/02 16:22:55;;;;;;;317.27;64.80;;;11.30;99.90;;;;;;6305747;22;20439;-75
2021/11/02 16:25:44;;;;;;;286.30;69.10;;;11.20;99.90;;;;;;6306977;22;20408;-75
2021/11/02 16:28:16;;;;;;;306.20;69.00;;;11.20;99.90;;;;;;6306912;22;20403;-75
2021/11/02 16:30:47;;;;;;;109.97;42.50;;;11.10;99.90;;;;;;6318593;22;20977;-75
2021/11/02 16:33:17;;;;;;;322.33;81.67;;;11.10;99.90;;;;;;6318468;22;20423;-75
2021/11/02 16:35:51;;;;;;;315.40;56.77;;;11.00;99.90;;;;;;6304486;22;20407;-75
2021/11/02 16:38:33;;;;;;;243.83;57.53;;;11.00;99.90;;;;;;6309290;22;20959;-76
2021/11/02 16:41:03;;;;;;;275.40;53.00;;;10.90;99.90;;;;;;6306727;22;20466;-76
2021/11/02 16:43:34;;;;;;;219.47;46.30;;;10.80;99.90;;;;;;6308307;22;20432;-76
2021/11/02 16:46:04;;;;;;;180.83;40.23;;;10.80;99.90;;;;;;6317583;22;20847;-75
2021/11/02 16:48:38;;;;;;;163.13;48.43;;;10.80;99.90;;;;;;6308311;22;20759;-75
2021/11/02 16:51:07;;;;;;;198.77;46.67;;;10.70;99.90;;;;;;6318503;22;20423;-75
2021/11/02 16:53:37;;;;;;;266.80;53.63;;;10.60;99.90;;;;;;6318309;22;20402;-74
2021/11/02 16:56:15;;;;;;;151.13;36.33;;;10.60;99.90;;;;;;6306293;22;20903;-74
2021/11/02 16:58:49;;;;;;;199.87;48.10;;;10.60;99.90;;;;;;6318541;22;20416;-76
2021/11/02 17:01:25;;;;;;;241.77;53.13;;;10.50;99.90;;;;;;6306064;22;20437;-75
2021/11/02 17:03:55;;;;;;;96.77;33.20;;;10.50;99.90;;;;;;6305389;22;20785;-75
2021/11/02 17:06:29;;;;;;;150.67;39.30;;;10.40;99.90;;;;;;6308205;22;20408;-75
2021/11/02 17:09:16;;;;;;;236.43;42.60;;;10.40;99.90;;;;;;6306544;22;20470;-75
2021/11/02 17:11:52;;;;;;;121.53;39.90;;;10.30;99.90;;;;;;6306362;22;20407;-75
2021/11/02 17:14:21;;;;;;;105.95;31.05;;;10.30;99.90;;;;;;6306191;22;20443;-72
2021/11/02 17:16:55;;;;;;;271.07;52.30;;;10.20;99.90;;;;;;6305393;22;20173;-73
2021/11/02 17:19:23;;;;;;;218.50;41.07;;;10.20;99.90;;;;;;6318106;22;20447;-73
2021/11/02 17:21:54;;;;;;;252.80;50.53;;;10.20;99.90;;;;;;6305324;22;20455;-73
2021/11/02 17:24:24;;;;;;;232.13;45.23;;;10.10;99.90;;;;;;6318529;22;20904;-73
2021/11/02 17:26:53;;;;;;;145.97;52.10;;;10.00;99.90;;;;;;6306324;22;20404;-73
2021/11/02 17:29:21;;;;;;;212.80;49.50;;;10.00;99.90;;;;;;6318213;22;20764;-73
2021/11/02 17:31:50;;;;;;;240.90;41.80;;;10.00;99.90;;;;;;6317557;22;20392;-73
2021/11/02 17:34:23;;;;;;;180.90;38.20;;;9.90;99.90;;;;;;6305859;22;20473;-73
2021/11/02 17:37:00;;;;;;;185.43;54.27;;;9.90;99.90;;;;;;6316558;22;20380;-73
2021/11/02 17:39:35;;;;;;;212.60;50.67;;;9.80;99.90;;;;;;6304653;22;20454;-73
2021/11/02 17:42:06;;;;;;;286.17;49.23;;;9.80;99.90;;;;;;6305952;22;20407;-73
2021/11/02 17:44:35;;;;;;;177.97;46.57;;;9.70;99.90;;;;;;6318541;22;20384;-73
2021/11/02 17:47:09;;;;;;;155.53;45.03;;;9.70;99.90;;;;;;6318062;22;20943;-74